createdAt,value
2019-01-29T00:00:33.637Z,-0.01
2019-01-29T00:01:33.870Z,0.16
2019-01-29T00:02:33.595Z,0.15
2019-01-29T00:03:33.586Z,0.12
2019-01-29T00:04:33.583Z,0.13
2019-01-29T00:05:33.638Z,0.18
2019-01-29T00:06:33.566Z,0.10
2019-01-29T00:07:33.612Z,0.15
2019-01-29T00:08:33.609Z,0.15
2019-01-29T00:09:33.521Z,0.16
2019-01-29T00:10:33.526Z,0.20
2019-01-29T00:11:33.519Z,0.16
2019-01-29T00:12:34.742Z,0.16
2019-01-29T00:13:33.530Z,0.12
2019-01-29T00:14:33.480Z,0.15
2019-01-29T00:15:33.476Z,-0.01
2019-01-29T00:16:33.466Z,0.16
2019-01-29T00:17:33.461Z,0.10
2019-01-29T00:18:33.451Z,0.12
2019-01-29T00:19:33.473Z,0.12
2019-01-29T00:20:33.442Z,0.02
2019-01-29T00:21:33.412Z,0.06
2019-01-29T00:22:33.746Z,-0.01
2019-01-29T00:23:33.410Z,0.00
2019-01-29T00:24:33.390Z,0.05
2019-01-29T00:25:33.372Z,0.06
2019-01-29T00:26:33.368Z,0.02
2019-01-29T00:27:33.400Z,0.05
2019-01-29T00:28:33.378Z,0.06
2019-01-29T00:29:33.336Z,0.06
2019-01-29T00:30:33.362Z,-0.04
2019-01-29T00:31:33.483Z,0.05
2019-01-29T00:32:33.342Z,-0.08
2019-01-29T00:33:33.292Z,-0.19
2019-01-29T00:34:33.284Z,-0.16
2019-01-29T00:35:33.296Z,-0.29
2019-01-29T00:36:33.256Z,-0.31
2019-01-29T00:37:33.295Z,-0.18
2019-01-29T00:38:33.248Z,-0.37
2019-01-29T00:39:33.234Z,-0.52
2019-01-29T00:40:33.226Z,-0.63
2019-01-29T00:41:33.218Z,-0.59
2019-01-29T00:42:33.232Z,-0.62
2019-01-29T00:43:33.199Z,-0.60
2019-01-29T00:44:33.191Z,-0.50
2019-01-29T00:45:33.183Z,-0.47
2019-01-29T00:46:34.796Z,-0.47
2019-01-29T00:47:33.230Z,-0.47
2019-01-29T00:48:33.132Z,-0.54
2019-01-29T00:49:33.122Z,-0.44
2019-01-29T00:50:33.129Z,-0.41
2019-01-29T00:51:33.104Z,-0.42
2019-01-29T00:52:41.663Z,-0.34
2019-01-29T00:53:34.120Z,-0.31
2019-01-29T00:54:33.082Z,-0.31
2019-01-29T00:55:34.829Z,-0.37
2019-01-29T00:56:33.097Z,-0.36
2019-01-29T00:57:33.083Z,-0.37
2019-01-29T00:58:33.043Z,-0.50
2019-01-29T00:59:33.025Z,-0.57
2019-01-29T01:00:33.013Z,-0.60
2019-01-29T01:01:33.007Z,-0.63
2019-01-29T01:02:33.027Z,-0.65
2019-01-29T01:03:32.986Z,-0.63
2019-01-29T01:04:32.971Z,-0.62
2019-01-29T01:05:32.960Z,-0.78
2019-01-29T01:06:32.959Z,-0.81
2019-01-29T01:07:33.135Z,-1.00
2019-01-29T01:08:32.933Z,-0.99
2019-01-29T01:09:32.925Z,-1.17
2019-01-29T01:10:32.918Z,-1.03
2019-01-29T01:11:32.898Z,-1.02
2019-01-29T01:12:32.927Z,-0.97
2019-01-29T01:13:32.896Z,-0.89
2019-01-29T01:14:32.890Z,-0.84
2019-01-29T01:15:32.860Z,-0.68
2019-01-29T01:16:32.851Z,-0.66
2019-01-29T01:17:32.887Z,-0.51
2019-01-29T01:18:32.841Z,-0.65
2019-01-29T01:19:32.823Z,-0.78
2019-01-29T01:20:32.809Z,-0.81
2019-01-29T01:21:32.801Z,-0.84
2019-01-29T01:22:32.838Z,-0.78
2019-01-29T01:23:32.773Z,-0.73
2019-01-29T01:24:32.770Z,-0.69
2019-01-29T01:25:32.849Z,-0.75
2019-01-29T01:26:32.771Z,-0.69
2019-01-29T01:27:32.843Z,-0.65
2019-01-29T01:28:32.758Z,-0.59
2019-01-29T01:29:32.766Z,-0.63
2019-01-29T01:30:32.718Z,-0.60
2019-01-29T01:31:32.711Z,-0.62
2019-01-29T01:32:32.694Z,-0.63
2019-01-29T01:33:32.691Z,-0.52
2019-01-29T01:34:32.714Z,-0.51
2019-01-29T01:35:32.671Z,-0.47
2019-01-29T01:36:32.647Z,-0.48
2019-01-29T01:37:32.692Z,-0.52
2019-01-29T01:38:32.634Z,-0.55
2019-01-29T01:39:32.631Z,-0.55
2019-01-29T01:40:32.606Z,-0.47
2019-01-29T01:41:32.644Z,-0.44
2019-01-29T01:42:32.693Z,-0.41
2019-01-29T01:43:33.256Z,-0.33
2019-01-29T01:44:33.254Z,-0.33
2019-01-29T01:45:32.591Z,-0.41
2019-01-29T01:46:33.255Z,-0.34
2019-01-29T01:47:33.255Z,-0.33
2019-01-29T01:48:33.254Z,-0.34
2019-01-29T01:49:32.655Z,-0.41
2019-01-29T01:50:32.543Z,-0.30
2019-01-29T01:51:32.509Z,-0.37
2019-01-29T01:52:32.485Z,-0.31
2019-01-29T01:53:32.487Z,-0.39
2019-01-29T01:54:32.482Z,-0.29
2019-01-29T01:55:32.486Z,-0.37
2019-01-29T01:56:32.450Z,-0.41
2019-01-29T01:57:32.434Z,-0.34
2019-01-29T01:58:32.437Z,-0.39
2019-01-29T01:59:32.448Z,-0.34
2019-01-29T02:00:32.481Z,-0.27
2019-01-29T02:01:32.454Z,-0.29
2019-01-29T02:02:32.412Z,-0.30
2019-01-29T02:03:32.388Z,-0.41
2019-01-29T02:04:32.409Z,-0.41
2019-01-29T02:05:32.382Z,-0.39
2019-01-29T02:06:32.399Z,-0.37
2019-01-29T02:07:32.435Z,-0.42
2019-01-29T02:08:32.340Z,-0.37
2019-01-29T02:09:32.315Z,-0.48
2019-01-29T02:10:32.299Z,-0.50
2019-01-29T02:11:32.354Z,-0.51
2019-01-29T02:12:32.307Z,-0.47
2019-01-29T02:13:32.318Z,-0.60
2019-01-29T02:14:32.265Z,-0.62
2019-01-29T02:15:32.269Z,-0.57
2019-01-29T02:16:32.255Z,-0.63
2019-01-29T02:17:32.274Z,-0.55
2019-01-29T02:18:32.265Z,-0.48
2019-01-29T02:19:32.240Z,-0.45
2019-01-29T02:20:32.259Z,-0.41
2019-01-29T02:21:32.201Z,-0.41
2019-01-29T02:22:32.205Z,-0.39
2019-01-29T02:23:32.229Z,-0.52
2019-01-29T02:24:32.187Z,-0.45
2019-01-29T02:25:32.169Z,-0.45
2019-01-29T02:26:32.162Z,-0.42
2019-01-29T02:27:32.131Z,-0.51
2019-01-29T02:28:32.151Z,-0.51
2019-01-29T02:29:32.178Z,-0.55
2019-01-29T02:30:32.127Z,-0.63
2019-01-29T02:31:32.088Z,-0.54
2019-01-29T02:32:32.086Z,-0.59
2019-01-29T02:33:32.094Z,-0.62
2019-01-29T02:34:32.101Z,-0.69
2019-01-29T02:35:32.053Z,-0.84
2019-01-29T02:36:32.073Z,-0.86
2019-01-29T02:37:32.040Z,-0.87
2019-01-29T02:38:32.023Z,-0.89
2019-01-29T02:39:32.015Z,-0.97
2019-01-29T02:40:32.029Z,-0.95
2019-01-29T02:41:32.023Z,-0.91
2019-01-29T02:42:31.992Z,-1.05
2019-01-29T02:43:31.959Z,-1.06
2019-01-29T02:44:31.962Z,-1.02
2019-01-29T02:45:31.948Z,-1.06
2019-01-29T02:46:31.946Z,-1.03
2019-01-29T02:47:31.960Z,-1.05
2019-01-29T02:48:31.911Z,-1.13
2019-01-29T02:49:31.906Z,-1.27
2019-01-29T02:50:31.903Z,-1.35
2019-01-29T02:51:31.879Z,-1.38
2019-01-29T02:52:31.868Z,-1.36
2019-01-29T02:53:31.889Z,-1.41
2019-01-29T02:54:31.856Z,-1.28
2019-01-29T02:55:31.844Z,-1.33
2019-01-29T02:56:31.833Z,-1.42
2019-01-29T02:57:31.833Z,-1.38
2019-01-29T02:58:31.810Z,-1.42
2019-01-29T02:59:31.841Z,-1.48
2019-01-29T03:00:31.803Z,-1.57
2019-01-29T03:01:31.791Z,-1.62
2019-01-29T03:02:31.829Z,-1.67
2019-01-29T03:03:31.766Z,-1.64
2019-01-29T03:04:31.748Z,-1.60
2019-01-29T03:05:31.742Z,-1.69
2019-01-29T03:06:31.739Z,-1.62
2019-01-29T03:07:31.751Z,-1.64
2019-01-29T03:08:31.743Z,-1.75
2019-01-29T03:09:31.734Z,-1.60
2019-01-29T03:10:31.895Z,-1.59
2019-01-29T03:11:31.864Z,-1.57
2019-01-29T03:12:32.074Z,-1.67
2019-01-29T03:13:31.885Z,-1.54
2019-01-29T03:14:32.090Z,-1.46
2019-01-29T03:15:32.076Z,-1.53
2019-01-29T03:16:31.917Z,-1.49
2019-01-29T03:17:31.828Z,-1.42
2019-01-29T03:18:31.881Z,-1.51
2019-01-29T03:19:32.790Z,-1.48
2019-01-29T03:20:31.834Z,-1.51
2019-01-29T03:21:31.848Z,-1.53
2019-01-29T03:22:31.788Z,-1.43
2019-01-29T03:23:31.761Z,-1.48
2019-01-29T03:24:31.784Z,-1.43
2019-01-29T03:25:32.019Z,-1.49
2019-01-29T03:26:31.588Z,-1.48
2019-01-29T03:27:31.572Z,-1.49
2019-01-29T03:28:31.643Z,-1.39
2019-01-29T03:29:31.549Z,-1.48
2019-01-29T03:30:31.549Z,-1.43
2019-01-29T03:31:31.540Z,-1.49
2019-01-29T03:32:31.527Z,-1.46
2019-01-29T03:33:31.522Z,-1.35
2019-01-29T03:34:31.581Z,-1.41
2019-01-29T03:35:31.487Z,-1.36
2019-01-29T03:36:31.479Z,-1.46
2019-01-29T03:37:31.475Z,-1.35
2019-01-29T03:38:31.456Z,-1.36
2019-01-29T03:39:31.547Z,-1.39
2019-01-29T03:40:31.444Z,-1.31
2019-01-29T03:41:31.440Z,-1.31
2019-01-29T03:42:31.426Z,-1.41
2019-01-29T03:43:31.413Z,-1.35
2019-01-29T03:44:31.484Z,-1.21
2019-01-29T03:45:31.393Z,-1.30
2019-01-29T03:46:31.396Z,-1.31
2019-01-29T03:47:31.367Z,-1.46
2019-01-29T03:48:31.366Z,-1.43
2019-01-29T03:49:31.353Z,-1.49
2019-01-29T03:50:31.432Z,-1.63
2019-01-29T03:51:31.338Z,-1.60
2019-01-29T03:52:31.318Z,-1.60
2019-01-29T03:53:37.808Z,-1.62
2019-01-29T03:54:32.304Z,-1.63
2019-01-29T03:55:31.370Z,-1.75
2019-01-29T03:56:31.287Z,-1.81
2019-01-29T03:57:31.306Z,-1.82
2019-01-29T03:58:31.365Z,-1.85
2019-01-29T03:59:31.363Z,-1.85
2019-01-29T04:00:31.252Z,-1.85
2019-01-29T04:01:31.265Z,-1.87
2019-01-29T04:02:31.329Z,-1.84
2019-01-29T04:03:31.222Z,-1.87
2019-01-29T04:04:31.213Z,-1.78
2019-01-29T04:05:31.199Z,-1.87
2019-01-29T04:06:31.194Z,-1.84
2019-01-29T04:07:31.179Z,-1.96
2019-01-29T04:08:31.252Z,-2.08
2019-01-29T04:09:31.237Z,-2.06
2019-01-29T04:10:31.156Z,-2.02
2019-01-29T04:11:31.132Z,-2.10
2019-01-29T04:12:31.111Z,-2.02
2019-01-29T04:13:31.133Z,-2.10
2019-01-29T04:14:31.185Z,-2.13
2019-01-29T04:15:31.087Z,-2.14
2019-01-29T04:16:31.074Z,-2.23
2019-01-29T04:17:31.069Z,-2.17
2019-01-29T04:18:31.093Z,-2.03
2019-01-29T04:19:31.137Z,-1.84
2019-01-29T04:20:31.096Z,-1.72
2019-01-29T04:21:31.033Z,-1.62
2019-01-29T04:22:31.028Z,-1.54
2019-01-29T04:23:31.012Z,-1.35
2019-01-29T04:24:31.082Z,-1.38
2019-01-29T04:25:31.063Z,-1.27
2019-01-29T04:26:30.995Z,-1.31
2019-01-29T04:27:53.856Z,-1.42
2019-01-29T04:28:30.951Z,-1.28
2019-01-29T04:29:31.025Z,-1.35
2019-01-29T04:30:30.927Z,-1.31
2019-01-29T04:31:30.922Z,-1.27
2019-01-29T04:32:30.943Z,-1.33
2019-01-29T04:33:30.918Z,-1.28
2019-01-29T04:34:30.988Z,-1.33
2019-01-29T04:35:30.900Z,-1.25
2019-01-29T04:36:30.884Z,-1.33
2019-01-29T04:37:30.879Z,-1.31
2019-01-29T04:38:30.866Z,-1.39
2019-01-29T04:39:30.932Z,-1.48
2019-01-29T04:40:30.840Z,-1.48
2019-01-29T04:41:30.835Z,-1.43
2019-01-29T04:42:30.810Z,-1.51
2019-01-29T04:43:30.811Z,-1.49
2019-01-29T04:44:30.792Z,-1.59
2019-01-29T04:45:30.885Z,-1.63
2019-01-29T04:46:30.780Z,-1.67
2019-01-29T04:47:30.775Z,-1.56
2019-01-29T04:48:30.748Z,-1.59
2019-01-29T04:49:30.798Z,-1.54
2019-01-29T04:50:30.741Z,-1.57
2019-01-29T04:51:30.718Z,-1.56
2019-01-29T04:52:30.710Z,-1.49
2019-01-29T04:53:30.717Z,-1.39
2019-01-29T04:54:30.767Z,-1.49
2019-01-29T04:55:30.695Z,-1.48
2019-01-29T04:56:30.644Z,-1.30
2019-01-29T04:57:30.633Z,-1.27
2019-01-29T04:58:30.620Z,-1.15
2019-01-29T04:59:30.648Z,-1.05
2019-01-29T05:00:30.609Z,-1.02
2019-01-29T05:01:30.579Z,-0.91
2019-01-29T05:02:30.571Z,-0.89
2019-01-29T05:03:30.562Z,-1.00
2019-01-29T05:04:30.770Z,-0.99
2019-01-29T05:05:30.541Z,-0.92
2019-01-29T05:06:30.530Z,-0.95
2019-01-29T05:07:30.525Z,-0.87
2019-01-29T05:08:30.535Z,-0.86
2019-01-29T05:09:30.581Z,-0.92
2019-01-29T05:10:30.529Z,-0.84
2019-01-29T05:11:30.484Z,-0.75
2019-01-29T05:12:30.468Z,-0.73
2019-01-29T05:13:30.507Z,-0.78
2019-01-29T05:14:30.448Z,-0.72
2019-01-29T05:15:30.449Z,-0.75
2019-01-29T05:16:30.433Z,-0.75
2019-01-29T05:17:30.422Z,-0.84
2019-01-29T05:18:32.145Z,-0.84
2019-01-29T05:19:30.408Z,-0.91
2019-01-29T05:20:30.414Z,-0.86
2019-01-29T05:21:30.387Z,-0.75
2019-01-29T05:22:30.372Z,-0.62
2019-01-29T05:23:30.352Z,-0.70
2019-01-29T05:24:30.350Z,-0.62
2019-01-29T05:25:30.374Z,-0.70
2019-01-29T05:26:30.327Z,-0.70
2019-01-29T05:27:30.345Z,-0.65
2019-01-29T05:28:30.321Z,-0.60
2019-01-29T05:29:30.297Z,-0.65
2019-01-29T05:30:30.342Z,-0.63
2019-01-29T05:31:30.276Z,-0.72
2019-01-29T05:32:30.270Z,-0.65
2019-01-29T05:33:30.295Z,-0.65
2019-01-29T05:34:30.245Z,-0.72
2019-01-29T05:35:30.248Z,-0.69
2019-01-29T05:36:30.229Z,-0.68
2019-01-29T05:37:30.220Z,-0.65
2019-01-29T05:38:30.204Z,-0.72
2019-01-29T05:39:30.230Z,-0.73
2019-01-29T05:40:30.193Z,-0.72
2019-01-29T05:41:30.185Z,-0.70
2019-01-29T05:42:30.199Z,-0.77
2019-01-29T05:43:30.164Z,-0.65
2019-01-29T05:44:30.148Z,-0.65
2019-01-29T05:45:30.136Z,-0.65
2019-01-29T05:46:30.136Z,-0.65
2019-01-29T05:47:30.109Z,-0.77
2019-01-29T05:48:30.158Z,-0.69
2019-01-29T05:49:30.098Z,-0.62
2019-01-29T05:50:30.087Z,-0.65
2019-01-29T05:51:30.069Z,-0.68
2019-01-29T05:52:30.080Z,-0.66
2019-01-29T05:53:30.061Z,-0.68
2019-01-29T05:54:30.121Z,-0.68
2019-01-29T05:55:30.038Z,-0.55
2019-01-29T05:56:30.033Z,-0.66
2019-01-29T05:57:30.020Z,-0.55
2019-01-29T05:58:30.010Z,-0.47
2019-01-29T05:59:29.990Z,-0.57
2019-01-29T06:00:30.209Z,-0.57
2019-01-29T06:01:29.980Z,-0.60
2019-01-29T06:02:29.965Z,-0.57
2019-01-29T06:03:29.951Z,-0.66
2019-01-29T06:04:29.949Z,-0.50
2019-01-29T06:05:29.931Z,-0.51
2019-01-29T06:06:29.967Z,-0.50
2019-01-29T06:07:29.938Z,-0.44
2019-01-29T06:08:29.904Z,-0.48
2019-01-29T06:09:29.901Z,-0.50
2019-01-29T06:10:29.885Z,-0.51
2019-01-29T06:11:29.869Z,-0.48
2019-01-29T06:12:29.869Z,-0.54
2019-01-29T06:13:29.891Z,-0.54
2019-01-29T06:14:29.860Z,-0.59
2019-01-29T06:15:29.833Z,-0.68
2019-01-29T06:16:30.053Z,-0.70
2019-01-29T06:17:29.819Z,-0.62
2019-01-29T06:18:29.801Z,-0.70
2019-01-29T06:19:29.799Z,-0.70
2019-01-29T06:20:29.779Z,-0.78
2019-01-29T06:21:29.775Z,-0.89
2019-01-29T06:22:29.788Z,-0.92
2019-01-29T06:23:29.762Z,-0.94
2019-01-29T06:24:29.748Z,-0.84
2019-01-29T06:25:29.747Z,-0.92
2019-01-29T06:26:29.758Z,-0.80
2019-01-29T06:27:29.708Z,-0.87
2019-01-29T06:28:29.700Z,-0.70
2019-01-29T06:29:29.697Z,-0.68
2019-01-29T06:30:29.693Z,-0.63
2019-01-29T06:31:29.797Z,-0.62
2019-01-29T06:32:29.668Z,-0.69
2019-01-29T06:33:29.650Z,-0.65
2019-01-29T06:34:29.649Z,-0.52
2019-01-29T06:35:29.640Z,-0.63
2019-01-29T06:36:29.632Z,-0.55
2019-01-29T06:37:29.639Z,-0.62
2019-01-29T06:38:29.607Z,-0.55
2019-01-29T06:39:29.587Z,-0.60
2019-01-29T06:40:29.585Z,-0.63
2019-01-29T06:41:29.568Z,-0.70
2019-01-29T06:42:29.617Z,-0.70
2019-01-29T06:43:29.576Z,-0.86
2019-01-29T06:44:29.554Z,-0.73
2019-01-29T06:45:29.535Z,-0.62
2019-01-29T06:46:29.522Z,-0.69
2019-01-29T06:47:29.510Z,-0.70
2019-01-29T06:48:29.523Z,-0.81
2019-01-29T06:49:29.493Z,-1.00
2019-01-29T06:50:29.489Z,-1.13
2019-01-29T06:51:29.500Z,-1.25
2019-01-29T06:52:29.455Z,-1.23
2019-01-29T06:53:29.448Z,-1.20
2019-01-29T06:54:34.129Z,-1.17
2019-01-29T06:55:30.431Z,-1.20
2019-01-29T06:56:29.596Z,-1.21
2019-01-29T06:57:29.416Z,-1.33
2019-01-29T06:58:29.404Z,-1.30
2019-01-29T06:59:29.386Z,-1.30
2019-01-29T07:00:29.393Z,-1.24
2019-01-29T07:01:29.401Z,-1.20
2019-01-29T07:02:29.357Z,-1.20
2019-01-29T07:03:29.353Z,-1.17
2019-01-29T07:04:29.346Z,-1.18
2019-01-29T07:05:29.329Z,-1.13
2019-01-29T07:06:29.348Z,-1.12
2019-01-29T07:07:29.303Z,-1.06
2019-01-29T07:08:29.330Z,-1.00
2019-01-29T07:09:29.295Z,-0.92
2019-01-29T07:10:29.274Z,-1.02
2019-01-29T07:11:29.261Z,-0.95
2019-01-29T07:12:29.270Z,-0.87
2019-01-29T07:13:29.265Z,-0.91
2019-01-29T07:14:29.271Z,-0.95
2019-01-29T07:15:29.258Z,-0.94
2019-01-29T07:16:29.361Z,-0.89
2019-01-29T07:17:29.212Z,-0.87
2019-01-29T07:18:29.198Z,-0.89
2019-01-29T07:19:29.188Z,-0.91
2019-01-29T07:20:29.203Z,-0.87
2019-01-29T07:21:29.191Z,-0.84
2019-01-29T07:22:29.158Z,-0.83
2019-01-29T07:23:29.144Z,-0.86
2019-01-29T07:24:29.136Z,-0.84
2019-01-29T07:25:29.124Z,-0.84
2019-01-29T07:26:29.136Z,-0.92
2019-01-29T07:27:29.367Z,-0.89
2019-01-29T07:28:29.095Z,-0.87
2019-01-29T07:29:29.084Z,-0.89
2019-01-29T07:30:29.068Z,-0.92
2019-01-29T07:31:29.098Z,-0.80
2019-01-29T07:32:29.062Z,-0.92
2019-01-29T07:33:29.335Z,-0.92
2019-01-29T07:34:29.029Z,-0.92
2019-01-29T07:35:29.017Z,-0.86
2019-01-29T07:36:29.030Z,-0.75
2019-01-29T07:37:29.001Z,-0.72
2019-01-29T07:38:28.993Z,-0.69
2019-01-29T07:39:29.025Z,-0.68
2019-01-29T07:40:28.981Z,-0.65
2019-01-29T07:41:28.966Z,-0.57
2019-01-29T07:42:28.988Z,-0.66
2019-01-29T07:43:28.932Z,-0.55
2019-01-29T07:44:28.930Z,-0.59
2019-01-29T07:45:28.931Z,-0.72
2019-01-29T07:46:28.954Z,-0.52
2019-01-29T07:47:28.937Z,-0.52
2019-01-29T07:48:28.883Z,-0.51
2019-01-29T07:49:28.901Z,-0.50
2019-01-29T07:50:28.873Z,-0.47
2019-01-29T07:51:28.880Z,-0.50
2019-01-29T07:52:28.890Z,-0.51
2019-01-29T07:53:28.851Z,-0.45
2019-01-29T07:54:33.463Z,-0.50
2019-01-29T07:55:28.823Z,-0.47
2019-01-29T07:56:28.807Z,-0.41
2019-01-29T07:57:28.836Z,-0.34
2019-01-29T07:58:28.806Z,-0.16
2019-01-29T07:59:33.024Z,-0.23
2019-01-29T08:00:28.783Z,-0.37
2019-01-29T08:01:28.770Z,-0.27
2019-01-29T08:02:28.794Z,-0.29
2019-01-29T08:03:28.743Z,-0.18
2019-01-29T08:04:28.726Z,-0.19
2019-01-29T08:05:28.714Z,-0.19
2019-01-29T08:06:28.709Z,-0.24
2019-01-29T08:07:28.754Z,-0.23
2019-01-29T08:08:28.697Z,-0.08
2019-01-29T08:09:28.683Z,0.03
2019-01-29T08:10:28.664Z,-0.11
2019-01-29T08:11:28.680Z,-0.13
2019-01-29T08:12:29.305Z,-0.01
2019-01-29T08:13:28.675Z,-0.06
2019-01-29T08:14:28.645Z,0.18
2019-01-29T08:15:28.625Z,0.13
2019-01-29T08:16:28.647Z,0.18
2019-01-29T08:17:28.633Z,0.06
2019-01-29T08:18:28.597Z,0.12
2019-01-29T08:19:28.619Z,0.31
2019-01-29T08:20:28.567Z,0.43
2019-01-29T08:21:28.557Z,0.41
2019-01-29T08:22:28.593Z,0.25
2019-01-29T08:23:28.544Z,0.25
2019-01-29T08:24:32.461Z,0.27
2019-01-29T08:25:48.850Z,0.30
2019-01-29T08:26:28.516Z,0.25
2019-01-29T08:27:28.603Z,0.28
2019-01-29T08:28:28.533Z,0.25
2019-01-29T08:29:28.524Z,0.28
2019-01-29T08:30:28.463Z,0.33
2019-01-29T08:31:28.460Z,0.30
2019-01-29T08:32:28.448Z,0.33
2019-01-29T08:33:28.441Z,0.38
2019-01-29T08:34:28.478Z,0.43
2019-01-29T08:35:28.422Z,0.46
2019-01-29T08:36:28.409Z,0.48
2019-01-29T08:37:28.437Z,0.42
2019-01-29T08:38:28.381Z,0.48
2019-01-29T08:39:28.375Z,0.52
2019-01-29T08:40:28.368Z,0.57
2019-01-29T08:41:28.400Z,0.60
2019-01-29T08:42:28.349Z,0.68
2019-01-29T08:43:28.385Z,0.78
2019-01-29T08:44:28.331Z,0.92
2019-01-29T08:45:28.331Z,0.86
2019-01-29T08:46:28.299Z,1.01
2019-01-29T08:47:28.298Z,0.97
2019-01-29T08:48:28.312Z,1.06
2019-01-29T08:49:28.289Z,1.26
2019-01-29T08:50:28.263Z,1.46
2019-01-29T08:51:28.251Z,1.55
2019-01-29T08:52:28.247Z,1.71
2019-01-29T08:53:28.239Z,1.72
2019-01-29T08:54:28.256Z,1.79
2019-01-29T08:55:28.206Z,1.71
2019-01-29T08:56:28.207Z,1.65
2019-01-29T08:57:28.194Z,1.62
2019-01-29T08:58:28.187Z,1.62
2019-01-29T08:59:28.171Z,1.61
2019-01-29T09:00:28.209Z,1.54
2019-01-29T09:01:28.182Z,1.50
2019-01-29T09:02:28.146Z,1.50
2019-01-29T09:03:28.191Z,1.39
2019-01-29T09:04:28.135Z,1.24
2019-01-29T09:05:28.109Z,1.21
2019-01-29T09:06:28.093Z,1.24
2019-01-29T09:07:28.086Z,1.33
2019-01-29T09:08:28.088Z,1.24
2019-01-29T09:09:28.091Z,1.21
2019-01-29T09:10:28.069Z,1.14
2019-01-29T09:11:28.054Z,1.26
2019-01-29T09:12:28.167Z,1.39
2019-01-29T09:13:28.849Z,1.44
2019-01-29T09:14:28.028Z,1.55
2019-01-29T09:15:28.015Z,1.55
2019-01-29T09:16:27.994Z,1.65
2019-01-29T09:17:27.994Z,1.64
2019-01-29T09:18:28.031Z,1.73
2019-01-29T09:19:27.985Z,1.69
2019-01-29T09:20:27.960Z,1.64
2019-01-29T09:21:27.974Z,1.62
2019-01-29T09:22:27.948Z,1.65
2019-01-29T09:23:28.805Z,1.69
2019-01-29T09:24:27.916Z,1.72
2019-01-29T09:25:27.911Z,1.79
2019-01-29T09:26:27.929Z,1.90
2019-01-29T09:27:27.905Z,1.75
2019-01-29T09:28:28.028Z,1.40
2019-01-29T09:29:27.881Z,1.26
2019-01-29T09:30:27.870Z,1.21
2019-01-29T09:31:27.900Z,1.24
2019-01-29T09:32:27.844Z,1.01
2019-01-29T09:33:27.885Z,1.21
2019-01-29T09:34:27.878Z,1.29
2019-01-29T09:35:27.815Z,1.32
2019-01-29T09:36:27.798Z,1.46
2019-01-29T09:37:27.786Z,1.64
2019-01-29T09:38:27.828Z,1.78
2019-01-29T09:39:27.768Z,1.94
2019-01-29T09:40:27.786Z,2.04
2019-01-29T09:41:27.762Z,1.91
2019-01-29T09:42:27.721Z,1.64
2019-01-29T09:43:27.768Z,1.58
2019-01-29T09:44:27.731Z,1.34
2019-01-29T09:45:27.696Z,1.18
2019-01-29T09:46:27.707Z,1.24
2019-01-29T09:47:27.680Z,1.28
2019-01-29T09:48:27.897Z,1.40
2019-01-29T09:49:27.688Z,1.61
2019-01-29T09:50:27.669Z,1.50
2019-01-29T09:51:27.676Z,1.46
2019-01-29T10:07:04.114Z,1.75
2019-01-29T10:08:04.094Z,1.64
2019-01-29T10:09:03.976Z,1.65
2019-01-29T10:10:05.764Z,1.68
2019-01-29T10:11:05.708Z,1.62
2019-01-29T10:12:03.983Z,1.78
2019-01-29T10:13:03.924Z,1.71
2019-01-29T10:14:05.735Z,1.69
2019-01-29T10:15:03.976Z,1.65
2019-01-29T10:16:05.788Z,1.64
2019-01-29T10:17:03.835Z,1.79
2019-01-29T10:18:03.897Z,1.78
2019-01-29T10:20:27.667Z,1.83
2019-01-29T10:21:27.592Z,1.75
2019-01-29T10:22:27.594Z,1.80
2019-01-29T10:23:30.296Z,1.85
2019-01-29T10:24:27.557Z,2.08
2019-01-29T10:25:27.554Z,2.06
2019-01-29T10:26:27.514Z,2.10
2019-01-29T10:27:27.511Z,2.31
2019-01-29T10:28:27.528Z,2.58
2019-01-29T10:29:27.506Z,2.66
2019-01-29T10:30:27.474Z,2.59
2019-01-29T10:31:28.242Z,2.38
2019-01-29T10:32:27.500Z,2.13
2019-01-29T10:33:27.561Z,2.12
2019-01-29T10:34:27.463Z,2.23
2019-01-29T10:35:27.423Z,2.28
2019-01-29T10:36:27.440Z,2.10
2019-01-29T10:37:27.404Z,2.31
2019-01-29T10:38:28.241Z,2.34
2019-01-29T10:39:27.423Z,2.26
2019-01-29T10:40:27.376Z,2.09
2019-01-29T10:41:27.362Z,1.76
2019-01-29T10:42:27.370Z,1.52
2019-01-29T10:43:27.396Z,1.58
2019-01-29T10:44:27.331Z,1.51
2019-01-29T10:45:27.331Z,1.61
2019-01-29T10:46:27.331Z,1.57
2019-01-29T10:47:27.354Z,1.62
2019-01-29T10:48:27.333Z,1.80
2019-01-29T10:49:27.313Z,2.08
2019-01-29T10:50:27.276Z,2.15
2019-01-29T10:51:27.277Z,2.37
2019-01-29T10:52:27.263Z,2.64
2019-01-29T10:53:27.309Z,2.76
2019-01-29T10:54:27.227Z,2.87
2019-01-29T10:55:27.233Z,2.74
2019-01-29T10:56:27.226Z,2.76
2019-01-29T10:57:27.225Z,2.81
2019-01-29T10:58:27.216Z,2.88
2019-01-29T10:59:27.220Z,2.88
2019-01-29T11:00:27.267Z,2.91
2019-01-29T11:01:27.209Z,2.92
2019-01-29T11:02:27.226Z,2.58
2019-01-29T11:03:27.224Z,2.17
2019-01-29T11:04:27.179Z,2.06
2019-01-29T11:05:27.135Z,2.10
2019-01-29T11:06:28.884Z,2.04
2019-01-29T11:07:27.164Z,1.98
2019-01-29T11:08:27.192Z,1.89
2019-01-29T11:09:27.177Z,1.76
2019-01-29T11:10:27.164Z,1.97
2019-01-29T11:11:27.082Z,2.09
2019-01-29T11:12:27.163Z,2.28
2019-01-29T11:13:27.068Z,2.19
2019-01-29T11:14:27.215Z,2.12
2019-01-29T11:15:27.021Z,1.97
2019-01-29T11:16:27.016Z,1.68
2019-01-29T11:17:27.010Z,1.64
2019-01-29T11:18:27.014Z,1.64
2019-01-29T11:19:26.982Z,1.60
2019-01-29T11:20:27.099Z,1.58
2019-01-29T11:21:26.990Z,1.69
2019-01-29T11:22:26.979Z,1.73
2019-01-29T11:23:26.956Z,1.72
2019-01-29T11:24:27.054Z,1.76
2019-01-29T11:25:26.968Z,1.69
2019-01-29T11:26:26.957Z,1.75
2019-01-29T11:27:26.966Z,1.68
2019-01-29T11:28:26.943Z,1.69
2019-01-29T11:29:27.029Z,1.71
2019-01-29T11:30:26.954Z,1.75
2019-01-29T11:31:26.909Z,1.76
2019-01-29T11:32:26.877Z,1.71
2019-01-29T11:33:26.927Z,1.79
2019-01-29T11:34:27.734Z,1.93
2019-01-29T11:35:26.891Z,2.02
2019-01-29T11:36:28.804Z,1.98
2019-01-29T11:37:26.825Z,1.94
2019-01-29T11:38:26.787Z,1.94
2019-01-29T11:39:26.832Z,2.19
2019-01-29T11:40:26.768Z,2.13
2019-01-29T11:41:26.883Z,2.12
2019-01-29T11:42:26.770Z,2.22
2019-01-29T11:43:26.787Z,2.20
2019-01-29T11:44:26.807Z,2.30
2019-01-29T11:45:26.913Z,2.35
2019-01-29T11:46:26.772Z,2.46
2019-01-29T11:47:26.755Z,2.73
2019-01-29T11:48:26.682Z,2.79
2019-01-29T11:49:26.675Z,2.92
2019-01-29T11:50:26.730Z,2.87
2019-01-29T11:51:26.714Z,2.88
2019-01-29T11:52:26.676Z,2.79
2019-01-29T11:53:26.719Z,2.61
2019-01-29T11:54:26.883Z,2.52
2019-01-29T11:55:26.703Z,2.70
2019-01-29T11:56:26.643Z,2.84
2019-01-29T11:57:26.638Z,3.05
2019-01-29T11:58:26.635Z,2.77
2019-01-29T11:59:26.651Z,2.69
2019-01-29T12:00:26.648Z,2.71
2019-01-29T12:01:26.665Z,2.84
2019-01-29T12:02:28.463Z,2.95
2019-01-29T12:03:26.564Z,2.88
2019-01-29T12:04:26.571Z,2.88
2019-01-29T12:05:26.582Z,2.98
2019-01-29T12:06:26.547Z,2.88
2019-01-29T12:07:26.504Z,3.03
2019-01-29T12:08:26.537Z,2.91
2019-01-29T12:09:26.548Z,2.79
2019-01-29T12:10:26.562Z,2.70
2019-01-29T12:11:26.452Z,2.53
2019-01-29T12:12:26.462Z,2.61
2019-01-29T12:13:26.509Z,2.53
2019-01-29T12:14:26.521Z,2.66
2019-01-29T12:15:28.433Z,2.73
2019-01-29T12:16:26.546Z,2.70
2019-01-29T12:17:29.371Z,2.71
2019-01-29T12:18:28.348Z,2.61
2019-01-29T12:20:45.398Z,2.63
2019-01-29T12:21:45.356Z,2.44
2019-01-29T12:22:45.311Z,2.48
2019-01-29T12:23:45.302Z,2.56
2019-01-29T12:24:45.475Z,2.61
2019-01-29T12:25:45.273Z,2.63
2019-01-29T12:26:45.263Z,2.73
2019-01-29T12:27:45.253Z,2.71
2019-01-29T12:28:45.240Z,2.88
2019-01-29T12:29:45.313Z,2.82
2019-01-29T12:30:45.233Z,2.79
2019-01-29T12:31:45.223Z,2.89
2019-01-29T12:32:45.219Z,2.76
2019-01-29T12:33:45.190Z,2.91
2019-01-29T12:34:45.214Z,2.88
2019-01-29T12:35:45.170Z,3.00
2019-01-29T12:36:45.167Z,2.97
2019-01-29T12:37:45.168Z,2.94
2019-01-29T12:38:45.171Z,2.94
2019-01-29T12:39:45.122Z,2.84
2019-01-29T12:40:45.122Z,2.82
2019-01-29T12:41:45.115Z,2.70
2019-01-29T12:42:45.102Z,2.69
2019-01-29T12:43:45.106Z,2.59
2019-01-29T12:44:45.120Z,2.64
2019-01-29T12:45:45.073Z,2.59
2019-01-29T12:46:45.062Z,2.61
2019-01-29T12:47:45.047Z,2.61
2019-01-29T12:48:45.081Z,2.58
2019-01-29T12:49:45.058Z,2.69
2019-01-29T12:50:45.020Z,2.67
2019-01-29T12:51:45.005Z,2.67
2019-01-29T12:52:44.989Z,2.69
2019-01-29T12:53:44.990Z,2.74
2019-01-29T12:54:45.006Z,2.79
2019-01-29T12:55:44.984Z,2.69
2019-01-29T12:56:44.963Z,2.69
2019-01-29T12:57:44.934Z,2.76
2019-01-29T12:58:44.971Z,2.79
2019-01-29T12:59:44.910Z,2.70
2019-01-29T13:00:44.904Z,2.73
2019-01-29T13:01:44.903Z,2.70
2019-01-29T13:02:44.917Z,2.61
2019-01-29T13:03:44.887Z,2.74
2019-01-29T13:04:44.901Z,2.67
2019-01-29T13:05:44.870Z,2.58
2019-01-29T13:06:44.882Z,2.45
2019-01-29T13:07:44.840Z,2.37
2019-01-29T13:08:44.844Z,2.30
2019-01-29T13:09:45.834Z,2.34
2019-01-29T13:10:44.812Z,2.34
2019-01-29T13:11:44.797Z,2.33
2019-01-29T13:12:44.791Z,2.37
2019-01-29T13:13:44.767Z,2.38
2019-01-29T13:14:44.775Z,2.30
2019-01-29T13:15:44.777Z,2.37
2019-01-29T13:16:44.746Z,2.28
2019-01-29T13:17:44.735Z,2.27
2019-01-29T13:18:44.733Z,2.28
2019-01-29T13:19:44.754Z,2.23